Terminal Aerodrome Forecast
Issued by NWS

Home | Current Version | Previous Version | Text Only | Print | Product List | Glossary On
Versions: 1 2 3 4 5 6 7 8 9 10 11 12 13 14 15 16 17 18
083
FTUS46 KEKA 232348
TAFUKI
TAF
KUKI 232348Z 2400/2424 33007KT P6SM SKC
     FM240300 VRB04KT P6SM FEW250 WS020/33025KT
     FM240800 VRB04KT P6SM SCT040 BKN200 WS018/33025KT
     FM241500 32008KT P6SM -SHRA SCT030 BKN060=

USA.gov is the U.S. government's official web portal to all federal, state and local government web resources and services.